createdAt,value
2024-02-15T00:00:17.001Z,3.70
2024-02-15T00:05:39.334Z,3.83
2024-02-15T00:08:11.422Z,3.50
2024-02-15T00:10:44.021Z,3.78
2024-02-15T00:13:16.102Z,4.10
2024-02-15T00:15:49.836Z,3.55
2024-02-15T00:18:22.726Z,4.70
2024-02-15T00:20:56.093Z,3.80
2024-02-15T00:23:28.645Z,3.42
2024-02-15T00:26:01.934Z,4.07
2024-02-15T00:28:35.559Z,3.65
2024-02-15T00:31:09.469Z,3.60
2024-02-15T00:33:42.041Z,3.67
2024-02-15T00:36:15.850Z,4.28
2024-02-15T00:38:48.029Z,4.10
2024-02-15T00:41:22.542Z,3.58
2024-02-15T00:43:54.565Z,2.90
2024-02-15T00:46:30.395Z,3.42
2024-02-15T00:49:02.570Z,4.18
2024-02-15T00:51:37.372Z,3.80
2024-02-15T00:54:09.559Z,4.90
2024-02-15T00:59:31.986Z,4.05
2024-02-15T01:02:04.493Z,4.68
2024-02-15T01:04:36.940Z,3.73
2024-02-15T01:07:09.443Z,3.55
2024-02-15T01:09:41.951Z,5.40
2024-02-15T01:12:14.228Z,4.10
2024-02-15T01:14:46.642Z,3.75
2024-02-15T01:17:19.129Z,4.13
2024-02-15T01:19:51.210Z,3.55
2024-02-15T01:22:28.412Z,3.63
2024-02-15T01:25:00.715Z,3.40
2024-02-15T01:27:32.976Z,3.15
2024-02-15T01:30:05.848Z,3.47
2024-02-15T01:32:38.590Z,3.10
2024-02-15T01:35:11.221Z,3.40
2024-02-15T01:37:43.720Z,3.00
2024-02-15T01:40:17.164Z,3.15
2024-02-15T01:42:51.220Z,3.33
2024-02-15T01:45:23.702Z,3.58
2024-02-15T01:47:57.314Z,3.78
2024-02-15T01:50:30.151Z,3.13
2024-02-15T01:53:05.146Z,3.45
2024-02-15T01:55:38.856Z,3.33
2024-02-15T01:58:11.049Z,3.58
2024-02-15T02:00:44.148Z,5.00
2024-02-15T02:03:16.668Z,4.30
2024-02-15T02:05:49.079Z,5.13
2024-02-15T02:08:21.065Z,5.00
2024-02-15T02:10:53.663Z,5.03
2024-02-15T02:13:25.932Z,5.28
2024-02-15T02:15:57.879Z,4.90
2024-02-15T02:18:30.437Z,4.80
2024-02-15T02:21:02.566Z,5.57
2024-02-15T02:23:35.530Z,5.30
2024-02-15T02:26:11.212Z,4.65
2024-02-15T02:28:44.115Z,4.30
2024-02-15T02:31:16.564Z,4.57
2024-02-15T02:33:54.050Z,4.40
2024-02-15T02:36:27.778Z,4.10
2024-02-15T02:39:02.458Z,3.90
2024-02-15T02:41:34.779Z,3.63
2024-02-15T02:44:07.296Z,3.50
2024-02-15T02:46:39.421Z,3.93
2024-02-15T02:49:13.047Z,3.70
2024-02-15T02:51:46.195Z,3.90
2024-02-15T02:54:18.665Z,3.58
2024-02-15T02:56:51.122Z,4.30
2024-02-15T02:59:23.357Z,4.30
2024-02-15T03:01:58.455Z,4.07
2024-02-15T03:04:31.339Z,4.22
2024-02-15T03:07:04.005Z,4.60
2024-02-15T03:09:38.219Z,4.30
2024-02-15T03:12:10.888Z,4.70
2024-02-15T03:14:42.952Z,4.93
2024-02-15T03:17:15.394Z,4.03
2024-02-15T03:19:50.003Z,4.10
2024-02-15T03:22:25.833Z,3.88
2024-02-15T03:24:58.897Z,4.20
2024-02-15T03:27:30.880Z,3.83
2024-02-15T03:30:05.690Z,3.35
2024-02-15T03:32:38.271Z,4.57
2024-02-15T03:35:10.814Z,3.47
2024-02-15T03:37:42.882Z,3.50
2024-02-15T03:40:15.795Z,3.90
2024-02-15T03:42:48.020Z,4.50
2024-02-15T03:45:21.567Z,3.78
2024-02-15T03:47:54.546Z,3.42
2024-02-15T03:50:26.641Z,3.47
2024-02-15T03:53:01.306Z,3.45
2024-02-15T03:55:34.482Z,2.97
2024-02-15T03:58:10.164Z,2.70
2024-02-15T04:00:42.227Z,3.35
2024-02-15T04:03:15.093Z,3.03
2024-02-15T04:05:47.148Z,2.97
2024-02-15T04:08:20.342Z,3.17
2024-02-15T04:10:53.710Z,3.38
2024-02-15T04:13:26.547Z,3.42
2024-02-15T04:15:59.193Z,3.53
2024-02-15T04:18:34.182Z,2.80
2024-02-15T04:21:08.624Z,2.70
2024-02-15T04:23:42.511Z,3.10
2024-02-15T04:26:14.940Z,3.35
2024-02-15T04:28:53.722Z,3.60
2024-02-15T04:31:28.946Z,2.95
2024-02-15T04:34:02.210Z,2.90
2024-02-15T04:36:35.347Z,3.35
2024-02-15T04:39:08.043Z,3.05
2024-02-15T04:41:40.297Z,2.80
2024-02-15T04:44:13.290Z,3.80
2024-02-15T04:46:46.782Z,2.75
2024-02-15T04:49:20.279Z,3.03
2024-02-15T04:51:52.754Z,3.17
2024-02-15T04:54:25.840Z,2.80
2024-02-15T04:56:58.248Z,2.90
2024-02-15T04:59:31.909Z,3.00
2024-02-15T05:02:03.969Z,4.38
2024-02-15T05:04:37.740Z,3.05
2024-02-15T05:07:16.465Z,2.70
2024-02-15T05:09:49.255Z,3.10
2024-02-15T05:12:25.652Z,2.67
2024-02-15T05:14:58.637Z,3.70
2024-02-15T05:17:31.097Z,3.10
2024-02-15T05:20:11.541Z,3.30
2024-02-15T05:22:51.147Z,3.17
2024-02-15T05:25:25.719Z,3.63
2024-02-15T05:27:59.184Z,2.85
2024-02-15T05:30:33.931Z,3.15
2024-02-15T05:33:06.821Z,2.50
2024-02-15T05:35:41.827Z,2.95
2024-02-15T05:38:16.515Z,3.63
2024-02-15T05:40:49.961Z,3.30
2024-02-15T05:43:21.919Z,3.03
2024-02-15T05:45:54.388Z,3.13
2024-02-15T05:48:29.067Z,2.80
2024-02-15T05:51:02.132Z,2.85
2024-02-15T05:53:36.983Z,2.80
2024-02-15T05:56:13.720Z,3.20
2024-02-15T05:58:45.697Z,2.80
2024-02-15T06:01:18.215Z,2.78
2024-02-15T06:03:50.374Z,2.70
2024-02-15T06:06:23.228Z,3.20
2024-02-15T06:08:59.183Z,2.60
2024-02-15T06:11:38.648Z,2.90
2024-02-15T06:14:10.706Z,2.80
2024-02-15T06:16:45.681Z,2.70
2024-02-15T06:19:17.945Z,3.55
2024-02-15T06:21:50.659Z,2.90
2024-02-15T06:24:22.708Z,3.07
2024-02-15T06:27:01.357Z,2.88
2024-02-15T06:29:51.773Z,2.80
2024-02-15T06:32:43.381Z,3.33
2024-02-15T06:35:35.662Z,3.00
2024-02-15T06:38:26.541Z,2.90
2024-02-15T06:40:59.456Z,2.78
2024-02-15T06:43:31.931Z,3.40
2024-02-15T06:46:07.463Z,3.08
2024-02-15T06:48:45.679Z,3.50
2024-02-15T06:51:17.888Z,3.43
2024-02-15T06:53:51.038Z,3.70
2024-02-15T06:56:23.843Z,4.25
2024-02-15T06:58:57.016Z,4.80
2024-02-15T07:01:29.583Z,4.72
2024-02-15T07:04:04.695Z,3.90
2024-02-15T07:06:38.557Z,4.10
2024-02-15T07:09:12.334Z,3.83
2024-02-15T07:11:46.198Z,4.00
2024-02-15T07:14:21.129Z,4.05
2024-02-15T07:16:53.606Z,4.00
2024-02-15T07:19:28.896Z,4.50
2024-02-15T07:22:01.276Z,4.53
2024-02-15T07:24:33.824Z,4.50
2024-02-15T07:27:06.824Z,3.55
2024-02-15T07:29:39.352Z,4.70
2024-02-15T07:32:13.305Z,4.20
2024-02-15T07:34:47.052Z,4.50
2024-02-15T07:37:19.006Z,3.80
2024-02-15T07:39:51.469Z,5.13
2024-02-15T07:42:26.565Z,4.55
2024-02-15T07:44:59.163Z,3.90
2024-02-15T07:47:32.769Z,3.90
2024-02-15T07:50:08.218Z,3.88
2024-02-15T07:52:40.408Z,4.10
2024-02-15T07:55:13.404Z,3.60
2024-02-15T07:57:45.402Z,4.15
2024-02-15T08:00:18.439Z,3.85
2024-02-15T08:02:50.574Z,3.17
2024-02-15T08:05:23.151Z,3.17
2024-02-15T08:07:58.767Z,3.58
2024-02-15T08:10:31.533Z,2.80
2024-02-15T08:13:03.608Z,2.90
2024-02-15T08:15:36.453Z,2.10
2024-02-15T08:18:10.799Z,2.10
2024-02-15T08:20:46.151Z,2.75
2024-02-15T08:23:18.507Z,2.20
2024-02-15T08:25:51.531Z,3.13
2024-02-15T08:28:25.677Z,3.78
2024-02-15T08:30:58.821Z,3.78
2024-02-15T08:33:31.539Z,3.78
2024-02-15T08:36:05.169Z,3.90
2024-02-15T08:38:38.350Z,3.83
2024-02-15T08:41:14.314Z,3.05
2024-02-15T08:43:49.580Z,3.42
2024-02-15T08:46:22.650Z,3.25
2024-02-15T08:48:54.783Z,2.70
2024-02-15T08:51:27.485Z,2.70
2024-02-15T08:54:01.109Z,2.40
2024-02-15T08:56:35.042Z,2.55
2024-02-15T08:59:07.053Z,3.00
2024-02-15T09:01:40.882Z,2.72
2024-02-15T09:04:12.894Z,2.75
2024-02-15T09:06:45.492Z,2.25
2024-02-15T09:09:18.126Z,2.38
2024-02-15T09:11:50.734Z,2.83
2024-02-15T09:14:22.738Z,2.70
2024-02-15T09:16:55.678Z,2.80
2024-02-15T09:19:28.541Z,2.47
2024-02-15T09:22:01.046Z,2.60
2024-02-15T09:24:34.646Z,2.83
2024-02-15T09:27:07.343Z,2.40
2024-02-15T09:29:41.377Z,2.88
2024-02-15T09:32:14.621Z,3.00
2024-02-15T09:34:46.590Z,2.55
2024-02-15T09:37:19.117Z,2.70
2024-02-15T09:39:51.150Z,2.80
2024-02-15T09:42:25.306Z,2.22
2024-02-15T09:44:57.283Z,2.50
2024-02-15T09:47:42.123Z,2.78
2024-02-15T09:50:17.303Z,2.65
2024-02-15T09:52:58.105Z,2.93
2024-02-15T09:55:30.420Z,2.80
2024-02-15T09:58:02.950Z,2.92
2024-02-15T10:00:36.179Z,3.92
2024-02-15T10:03:09.639Z,4.50
2024-02-15T10:05:42.249Z,5.30
2024-02-15T10:08:14.814Z,4.68
2024-02-15T10:10:46.937Z,4.65
2024-02-15T10:13:25.362Z,4.85
2024-02-15T10:15:57.329Z,4.90
2024-02-15T10:18:30.277Z,5.13
2024-02-15T10:21:02.281Z,4.90
2024-02-15T10:23:34.810Z,5.13
2024-02-15T10:26:21.124Z,6.15
2024-02-15T10:29:11.723Z,5.68
2024-02-15T10:31:59.984Z,6.07
2024-02-15T10:34:33.338Z,6.05
2024-02-15T10:37:13.591Z,6.22
2024-02-15T10:39:46.232Z,5.70
2024-02-15T10:42:18.989Z,6.13
2024-02-15T10:44:54.093Z,5.70
2024-02-15T10:47:26.749Z,5.57
2024-02-15T10:49:59.881Z,5.22
2024-02-15T10:52:36.155Z,4.97
2024-02-15T10:55:15.024Z,5.57
2024-02-15T10:57:50.864Z,6.10
2024-02-15T11:00:27.645Z,5.35
2024-02-15T11:03:07.356Z,5.53
2024-02-15T11:05:42.168Z,5.95
2024-02-15T11:08:14.602Z,5.30
2024-02-15T11:10:49.020Z,6.00
2024-02-15T11:13:20.976Z,5.22
2024-02-15T11:15:54.922Z,5.72
2024-02-15T11:18:52.810Z,6.55
2024-02-15T11:21:55.785Z,5.72
2024-02-15T11:24:29.467Z,5.13
2024-02-15T11:27:06.762Z,5.55
2024-02-15T11:30:11.531Z,5.88
2024-02-15T11:32:49.151Z,5.38
2024-02-15T11:35:24.586Z,5.65
2024-02-15T11:38:05.586Z,5.10
2024-02-15T11:40:42.314Z,5.63
2024-02-15T11:46:56.565Z,5.97
2024-02-15T11:49:30.433Z,5.13
2024-02-15T11:52:11.505Z,6.17
2024-02-15T11:54:43.945Z,5.95
2024-02-15T11:57:27.108Z,5.88
2024-02-15T12:00:34.423Z,5.53
2024-02-15T12:03:24.867Z,5.68
2024-02-15T12:06:16.530Z,6.30
2024-02-15T12:09:09.016Z,5.22
2024-02-15T12:12:00.562Z,5.00
2024-02-15T12:14:51.411Z,5.30
2024-02-15T12:17:43.615Z,4.82
2024-02-15T12:20:16.705Z,5.67
2024-02-15T12:22:50.636Z,5.30
2024-02-15T12:25:23.803Z,5.20
2024-02-15T12:28:00.969Z,4.93
2024-02-15T12:30:41.943Z,5.10
2024-02-15T12:33:21.692Z,5.53
2024-02-15T12:36:09.689Z,5.85
2024-02-15T12:38:44.223Z,5.78
2024-02-15T12:41:23.089Z,5.10
2024-02-15T12:43:55.676Z,5.82
2024-02-15T12:46:28.521Z,5.80
2024-02-15T12:49:18.736Z,5.80
2024-02-15T12:51:58.553Z,5.65
2024-02-15T12:54:30.525Z,5.32
2024-02-15T12:57:14.295Z,5.40
2024-02-15T12:59:48.968Z,5.70
2024-02-15T13:02:22.058Z,5.28
2024-02-15T13:04:59.640Z,5.88
2024-02-15T13:07:32.042Z,5.72
2024-02-15T13:10:08.203Z,5.25
2024-02-15T13:12:40.195Z,5.03
2024-02-15T13:15:23.134Z,5.25
2024-02-15T13:17:56.671Z,5.75
2024-02-15T13:20:36.081Z,5.50
2024-02-15T13:23:11.076Z,5.72
2024-02-15T13:25:47.212Z,5.03
2024-02-15T13:28:19.915Z,6.40
2024-02-15T13:30:55.781Z,5.20
2024-02-15T13:33:30.340Z,4.70
2024-02-15T13:36:03.610Z,4.85
2024-02-15T13:38:37.937Z,5.00
2024-02-15T13:41:10.622Z,4.85
2024-02-15T13:43:42.825Z,5.45
2024-02-15T13:46:14.873Z,4.40
2024-02-15T13:48:47.628Z,5.20
2024-02-15T13:51:20.612Z,4.77
2024-02-15T13:53:53.160Z,4.35
2024-02-15T13:56:25.248Z,4.50
2024-02-15T13:59:01.343Z,4.35
2024-02-15T14:01:35.433Z,5.03
2024-02-15T14:04:07.863Z,4.20
2024-02-15T14:06:41.243Z,4.82
2024-02-15T14:09:14.322Z,4.35
2024-02-15T14:11:46.576Z,4.20
2024-02-15T14:14:18.551Z,4.68
2024-02-15T14:16:51.001Z,4.33
2024-02-15T14:19:27.453Z,4.32
2024-02-15T14:22:00.047Z,4.63
2024-02-15T14:24:32.008Z,4.03
2024-02-15T14:27:04.613Z,4.43
2024-02-15T14:29:38.617Z,4.17
2024-02-15T14:32:30.501Z,4.03
2024-02-15T14:35:02.802Z,4.13
2024-02-15T14:37:34.782Z,4.10
2024-02-15T14:40:08.526Z,3.75
2024-02-15T14:42:55.602Z,4.87
2024-02-15T14:45:30.354Z,3.88
2024-02-15T14:48:02.657Z,4.40
2024-02-15T14:50:36.233Z,4.63
2024-02-15T14:53:10.764Z,4.50
2024-02-15T14:55:48.052Z,5.13
2024-02-15T14:58:23.320Z,4.90
2024-02-15T15:01:00.670Z,5.28
2024-02-15T15:03:34.249Z,4.55
2024-02-15T15:06:28.581Z,4.82
2024-02-15T15:09:19.385Z,4.10
2024-02-15T15:12:10.588Z,4.47
2024-02-15T15:14:43.044Z,4.22
2024-02-15T15:17:17.316Z,5.13
2024-02-15T15:19:49.348Z,4.55
2024-02-15T15:22:22.374Z,4.40
2024-02-15T15:24:54.330Z,4.82
2024-02-15T15:27:26.926Z,4.80
2024-02-15T15:29:59.294Z,4.88
2024-02-15T15:32:31.840Z,4.63
2024-02-15T15:35:04.371Z,4.90
2024-02-15T15:37:37.561Z,5.05
2024-02-15T15:40:09.963Z,6.72
2024-02-15T15:42:42.455Z,7.47
2024-02-15T15:45:14.813Z,7.28
2024-02-15T15:47:47.139Z,7.10
2024-02-15T15:50:20.810Z,7.38
2024-02-15T15:52:55.013Z,6.80
2024-02-15T15:55:27.764Z,6.05
2024-02-15T15:58:00.780Z,5.68
2024-02-15T16:00:38.361Z,5.03
2024-02-15T16:03:11.352Z,4.93
2024-02-15T16:05:43.396Z,5.00
2024-02-15T16:08:15.816Z,5.80
2024-02-15T16:10:48.131Z,5.80
2024-02-15T16:13:21.224Z,5.27
2024-02-15T16:15:58.073Z,4.80
2024-02-15T16:18:30.375Z,5.35
2024-02-15T16:21:04.292Z,5.22
2024-02-15T16:23:36.482Z,4.40
2024-02-15T16:26:08.932Z,5.10
2024-02-15T16:31:17.325Z,5.45
2024-02-15T16:33:50.754Z,5.65
2024-02-15T16:36:24.261Z,4.55
2024-02-15T16:38:56.496Z,4.85
2024-02-15T16:41:30.809Z,5.28
2024-02-15T16:44:03.329Z,5.07
2024-02-15T16:46:35.364Z,5.10
2024-02-15T16:49:08.281Z,5.40
2024-02-15T16:51:40.689Z,6.28
2024-02-15T16:54:13.419Z,5.97
2024-02-15T16:56:45.482Z,5.78
2024-02-15T16:59:18.102Z,6.80
2024-02-15T17:01:50.099Z,6.25
2024-02-15T17:04:23.539Z,5.65
2024-02-15T17:06:56.807Z,5.95
2024-02-15T17:09:29.791Z,6.53
2024-02-15T17:12:05.666Z,8.98
2024-02-15T17:14:39.470Z,6.78
2024-02-15T17:17:11.612Z,6.47
2024-02-15T17:19:44.134Z,8.25
2024-02-15T17:22:16.928Z,6.90
2024-02-15T17:24:49.390Z,10.23
2024-02-15T17:27:21.431Z,7.40
2024-02-15T17:29:53.996Z,7.00
2024-02-15T17:32:26.448Z,8.05
2024-02-15T17:34:58.584Z,12.25
2024-02-15T17:37:31.042Z,9.73
2024-02-15T17:40:04.225Z,6.65
2024-02-15T17:42:36.469Z,6.00
2024-02-15T17:45:14.152Z,6.47
2024-02-15T17:47:47.703Z,6.45
2024-02-15T17:50:23.328Z,6.40
2024-02-15T17:52:55.810Z,6.30
2024-02-15T17:55:28.228Z,6.03
2024-02-15T17:58:02.548Z,6.82
2024-02-15T18:00:37.482Z,6.93
2024-02-15T18:03:11.831Z,6.40
2024-02-15T18:05:47.658Z,6.97
2024-02-15T18:08:21.235Z,7.63
2024-02-15T18:10:57.405Z,6.88
2024-02-15T18:13:30.243Z,6.65
2024-02-15T18:16:02.778Z,7.35
2024-02-15T18:18:35.401Z,6.10
2024-02-15T18:21:07.935Z,6.10
2024-02-15T18:23:44.547Z,5.68
2024-02-15T18:26:18.358Z,6.55
2024-02-15T18:28:50.339Z,5.15
2024-02-15T18:31:23.964Z,5.20
2024-02-15T18:33:56.787Z,5.55
2024-02-15T18:36:29.394Z,5.90
2024-02-15T18:39:02.895Z,5.43
2024-02-15T18:41:35.332Z,5.10
2024-02-15T18:44:07.343Z,5.75
2024-02-15T18:46:42.003Z,5.90
2024-02-15T18:49:26.349Z,6.47
2024-02-15T18:52:04.480Z,5.88
2024-02-15T18:54:42.317Z,6.03
2024-02-15T18:57:14.407Z,6.82
2024-02-15T18:59:46.937Z,5.72
2024-02-15T19:02:21.289Z,6.22
2024-02-15T19:04:53.851Z,6.13
2024-02-15T19:07:26.369Z,6.50
2024-02-15T19:09:58.682Z,6.35
2024-02-15T19:12:31.245Z,6.72
2024-02-15T19:15:07.811Z,6.72
2024-02-15T19:17:41.618Z,8.07
2024-02-15T19:20:13.960Z,7.20
2024-02-15T19:22:46.650Z,7.20
2024-02-15T19:25:20.185Z,7.13
2024-02-15T19:27:53.361Z,6.72
2024-02-15T19:30:26.985Z,7.63
2024-02-15T19:32:59.820Z,7.15
2024-02-15T19:35:32.393Z,7.95
2024-02-15T19:38:04.600Z,8.45
2024-02-15T19:40:40.550Z,7.43
2024-02-15T19:43:12.964Z,7.40
2024-02-15T19:45:45.244Z,7.70
2024-02-15T19:48:18.132Z,7.30
2024-02-15T19:51:13.317Z,8.25
2024-02-15T19:53:45.463Z,6.93
2024-02-15T19:56:20.105Z,7.43
2024-02-15T19:58:56.259Z,7.53
2024-02-15T20:01:29.092Z,7.75
2024-02-15T20:04:02.070Z,7.50
2024-02-15T20:06:35.567Z,6.90
2024-02-15T20:09:08.107Z,5.97
2024-02-15T20:11:40.087Z,5.95
2024-02-15T20:14:14.975Z,6.65
2024-02-15T20:16:55.637Z,5.80
2024-02-15T20:19:28.231Z,6.55
2024-02-15T20:22:01.539Z,6.40
2024-02-15T20:24:34.643Z,6.10
2024-02-15T20:27:07.154Z,6.03
2024-02-15T20:29:40.628Z,6.53
2024-02-15T20:32:12.991Z,5.90
2024-02-15T20:34:47.577Z,6.30
2024-02-15T20:37:19.561Z,6.10
2024-02-15T20:39:55.049Z,7.45
2024-02-15T20:42:28.075Z,7.25
2024-02-15T20:45:01.515Z,7.68
2024-02-15T20:47:34.613Z,7.93
2024-02-15T20:50:14.182Z,6.88
2024-02-15T20:52:46.300Z,6.35
2024-02-15T20:55:18.775Z,6.28
2024-02-15T20:57:50.865Z,6.55
2024-02-15T21:00:24.044Z,7.53
2024-02-15T21:02:56.134Z,6.57
2024-02-15T21:05:30.303Z,6.38
2024-02-15T21:08:02.658Z,7.95
2024-02-15T21:10:35.126Z,6.32
2024-02-15T21:13:08.883Z,5.93
2024-02-15T21:15:41.345Z,5.53
2024-02-15T21:18:14.773Z,5.15
2024-02-15T21:20:47.464Z,4.97
2024-02-15T21:23:19.543Z,5.07
2024-02-15T21:25:52.006Z,4.68
2024-02-15T21:28:23.919Z,4.80
2024-02-15T21:30:56.938Z,5.00
2024-02-15T21:33:28.946Z,5.18
2024-02-15T21:36:01.935Z,5.03
2024-02-15T21:38:34.189Z,4.43
2024-02-15T21:41:08.541Z,4.97
2024-02-15T21:43:42.586Z,4.65
2024-02-15T21:46:16.619Z,4.80
2024-02-15T21:48:51.634Z,4.60
2024-02-15T21:51:24.650Z,5.40
2024-02-15T21:53:56.815Z,4.47
2024-02-15T21:56:29.916Z,4.60
2024-02-15T21:59:01.970Z,5.35
2024-02-15T22:01:39.994Z,5.45
2024-02-15T22:04:11.937Z,5.30
2024-02-15T22:06:48.490Z,5.60
2024-02-15T22:09:20.749Z,5.18
2024-02-15T22:11:53.326Z,4.95
2024-02-15T22:14:26.453Z,4.82
2024-02-15T22:16:59.160Z,4.80
2024-02-15T22:19:31.337Z,4.40
2024-02-15T22:22:04.167Z,3.92
2024-02-15T22:24:36.130Z,3.63
2024-02-15T22:27:08.709Z,4.45
2024-02-15T22:29:40.723Z,4.68
2024-02-15T22:32:14.013Z,5.10
2024-02-15T22:34:46.401Z,5.65
2024-02-15T22:37:19.455Z,4.93
2024-02-15T22:39:51.467Z,3.97
2024-02-15T22:42:25.089Z,3.78
2024-02-15T22:44:57.136Z,4.65
2024-02-15T22:47:29.647Z,4.15
2024-02-15T22:50:01.878Z,4.32
2024-02-15T22:52:34.443Z,4.80
2024-02-15T22:55:07.110Z,4.35
2024-02-15T22:57:40.751Z,4.40
2024-02-15T23:00:14.605Z,4.90
2024-02-15T23:02:47.446Z,4.80
2024-02-15T23:05:20.440Z,4.20
2024-02-15T23:07:53.034Z,4.10
2024-02-15T23:10:25.426Z,4.00
2024-02-15T23:12:58.040Z,3.90
2024-02-15T23:15:34.209Z,3.75
2024-02-15T23:18:07.189Z,3.55
2024-02-15T23:20:39.744Z,3.42
2024-02-15T23:23:14.339Z,3.30
2024-02-15T23:25:46.946Z,3.47
2024-02-15T23:28:19.442Z,2.75
2024-02-15T23:30:51.848Z,3.10
2024-02-15T23:33:24.458Z,3.10
2024-02-15T23:36:15.629Z,3.20
2024-02-15T23:39:06.578Z,3.03
2024-02-15T23:41:38.637Z,3.00
2024-02-15T23:44:11.898Z,2.95
2024-02-15T23:46:45.014Z,2.60
2024-02-15T23:49:17.988Z,3.30
2024-02-15T23:51:50.156Z,3.10
2024-02-15T23:54:22.781Z,3.30
2024-02-15T23:56:55.716Z,2.65
2024-02-15T23:59:29.084Z,2.58
